»·PEaware :: SCX427 KDEN-KMSP

SCX427 :: KDEN-KMSP

FLIGHT INFORMATION

Flight Status: Arrived
Operator:
Sun Country Airlines
More flights by this operator :: More flights under this callsign
Pilot: Ben F. (13029)
Aircraft: BOEING 737-300
(B733)
More flights by this aircraft type
Origin: KDEN Denver Intl
United States
Destination: KMSP Minneapolis-St Paul Intl
United States
More flights between these airports :: More routes between these airports
Route: YOKES6 CHICI HAAND KD75A SSWAN TORGY3
File this flight plan on PilotEdge
Remarks: RMK / SIMBRIEF
Altitude:
(Current/Filed)
35,000ft
Speed:
(Current/Filed)
410kts
Departed: 10-Mar-19 11:17 AM
Arrived: 10-Mar-19 12:46 PM
Distance/Time
Traveled:
589nm/1:29
Distance/Time
To Go:
Arrived

Flight Plot

Page will automatically refresh every two minutes.

Flight plan parsing failed; only flown route is shown


Map Options




Map Legend


Flown Route
Filed Route
Departure Airport
Arrival Airport
Navaid (VOR, NDB)
Fix

Horizontal Profiles

Position Reports

Time Latitude Longitude Heading Altitude Ground
Speed
10-Mar-19 10:53 39.862536 -104.676292 12 5324ft 0kts
10-Mar-19 10:54 39.862536 -104.676292 12 5324ft 0kts
10-Mar-19 10:55 39.862536 -104.676292 12 5324ft 0kts
10-Mar-19 10:56 39.862536 -104.676292 12 5324ft 0kts
10-Mar-19 10:57 39.862536 -104.676292 12 5324ft 0kts
10-Mar-19 10:58 39.862536 -104.676292 12 5324ft 0kts
10-Mar-19 10:59 39.862536 -104.676292 12 5324ft 0kts
10-Mar-19 11:00 39.862536 -104.676292 12 5324ft 0kts
10-Mar-19 11:01 39.862536 -104.676292 12 5324ft 0kts
10-Mar-19 11:02 39.862536 -104.676292 12 5324ft 0kts
10-Mar-19 11:03 39.862536 -104.676292 12 5324ft 0kts
10-Mar-19 11:04 39.862535 -104.676292 12 5324ft 0kts
10-Mar-19 11:05 39.862089 -104.676205 318 5324ft 2kts
10-Mar-19 11:06 39.861934 -104.675695 267 5324ft 0kts
10-Mar-19 11:07 39.861934 -104.675696 266 5324ft 0kts
10-Mar-19 11:08 39.861876 -104.675967 234 5324ft 2kts
10-Mar-19 11:09 39.861301 -104.671464 90 5324ft 18kts
10-Mar-19 11:10 39.861068 -104.664939 93 5324ft 17kts
10-Mar-19 11:11 39.861063 -104.664543 89 5324ft 0kts
10-Mar-19 11:12 39.861064 -104.664290 89 5324ft 3kts
10-Mar-19 11:13 39.861048 -104.661722 90 5324ft 0kts
10-Mar-19 11:14 39.861048 -104.661722 90 5324ft 0kts
10-Mar-19 11:15 39.860639 -104.660157 178 5324ft 12kts
10-Mar-19 11:16 39.832784 -104.660606 184 5791ft 158kts
10-Mar-19 11:17 39.792370 -104.630980 133 7345ft 189kts
10-Mar-19 11:18 39.769622 -104.569209 90 9057ft 209kts
10-Mar-19 11:19 39.786931 -104.493187 78 9539ft 218kts
10-Mar-19 11:20 39.808333 -104.419595 54 9530ft 223kts
10-Mar-19 11:21 39.864578 -104.389098 358 9549ft 238kts
10-Mar-19 11:22 39.942159 -104.384168 0 9823ft 294kts
10-Mar-19 11:24 40.025603 -104.380150 358 11306ft 312kts
10-Mar-19 11:25 40.104717 -104.425141 316 13057ft 329kts
10-Mar-19 11:26 40.184465 -104.498836 330 14805ft 371kts
10-Mar-19 11:27 40.294664 -104.499868 10 16569ft 417kts
10-Mar-19 11:28 40.394102 -104.413614 36 18346ft 437kts
10-Mar-19 11:29 40.494647 -104.316524 36 20278ft 453kts
10-Mar-19 11:30 40.593101 -104.208835 57 21999ft 465kts
10-Mar-19 11:31 40.666527 -104.063910 57 23575ft 479kts
10-Mar-19 11:32 40.742994 -103.915402 57 25040ft 493kts
10-Mar-19 11:33 40.821399 -103.762412 56 26643ft 500kts
10-Mar-19 11:34 40.899611 -103.609031 56 28375ft 500kts
10-Mar-19 11:35 40.977716 -103.455096 55 29855ft 502kts
10-Mar-19 11:36 41.056852 -103.298224 55 30821ft 513kts
10-Mar-19 11:37 41.135715 -103.141477 53 31694ft 519kts
10-Mar-19 11:38 41.215827 -102.981318 52 32749ft 517kts
10-Mar-19 11:39 41.295735 -102.820599 52 33566ft 519kts
10-Mar-19 11:40 41.375561 -102.659184 51 34345ft 519kts
10-Mar-19 11:41 41.455426 -102.496847 51 34594ft 520kts
10-Mar-19 11:42 41.534558 -102.335125 52 34539ft 518kts
10-Mar-19 11:42 41.596818 -102.196709 58 34546ft 521kts
10-Mar-19 11:44 41.680027 -101.999038 56 34546ft 520kts
10-Mar-19 11:45 41.752158 -101.829099 56 34530ft 523kts
10-Mar-19 11:45 41.813086 -101.684789 56 34529ft 537kts
10-Mar-19 11:46 41.886841 -101.509076 56 34547ft 538kts
10-Mar-19 11:47 41.961550 -101.330082 57 34519ft 552kts
10-Mar-19 11:48 42.037224 -101.147340 58 34571ft 560kts
10-Mar-19 11:49 42.113738 -100.961854 57 34541ft 565kts
10-Mar-19 11:50 42.190384 -100.775262 56 34567ft 565kts
10-Mar-19 11:51 42.266380 -100.588517 56 34568ft 564kts
10-Mar-19 11:52 42.342266 -100.400876 56 34589ft 564kts
10-Mar-19 11:53 42.417376 -100.213622 57 34643ft 562kts
10-Mar-19 11:54 42.491969 -100.026813 57 34638ft 562kts
10-Mar-19 11:55 42.569365 -99.841648 53 34642ft 561kts
10-Mar-19 11:56 42.649231 -99.658977 54 34640ft 562kts
10-Mar-19 11:57 42.729124 -99.474761 54 34642ft 563kts
10-Mar-19 11:58 42.808892 -99.289521 55 34623ft 563kts
10-Mar-19 11:59 42.887934 -99.104821 54 34650ft 562kts
10-Mar-19 12:00 42.967004 -98.919039 53 34653ft 562kts
10-Mar-19 12:01 43.045735 -98.732879 52 34649ft 562kts
10-Mar-19 12:02 43.124803 -98.545030 52 34641ft 563kts
10-Mar-19 12:03 43.203135 -98.357691 52 34734ft 563kts
10-Mar-19 12:04 43.279549 -98.173117 53 34740ft 562kts
10-Mar-19 12:05 43.357174 -97.984814 53 34747ft 563kts
10-Mar-19 12:06 43.434170 -97.796777 53 34730ft 563kts
10-Mar-19 12:07 43.511378 -97.606998 53 34727ft 564kts
10-Mar-19 12:08 43.587847 -97.417771 53 34683ft 566kts
10-Mar-19 12:09 43.664820 -97.225681 54 34684ft 566kts
10-Mar-19 12:10 43.740899 -97.034892 54 34688ft 563kts
10-Mar-19 12:11 43.816241 -96.844681 54 34683ft 557kts
10-Mar-19 12:12 43.890386 -96.656257 54 34700ft 554kts
10-Mar-19 12:13 43.964118 -96.467615 54 34698ft 555kts
10-Mar-19 12:14 44.037965 -96.277194 55 34686ft 554kts
10-Mar-19 12:15 44.108340 -96.094246 54 34859ft 504kts
10-Mar-19 12:16 44.173762 -95.920748 58 35000ft 510kts
10-Mar-19 12:17 44.239155 -95.746237 53 34926ft 504kts
10-Mar-19 12:18 44.306970 -95.573994 53 34800ft 504kts
10-Mar-19 12:19 44.374445 -95.401195 53 34786ft 504kts
10-Mar-19 12:20 44.441981 -95.226816 54 34803ft 505kts
10-Mar-19 12:21 44.491537 -95.039883 68 34153ft 517kts
10-Mar-19 12:22 44.537422 -94.842000 68 29921ft 542kts
10-Mar-19 12:23 44.583805 -94.641089 68 26309ft 533kts
10-Mar-19 12:24 44.627296 -94.451025 68 23569ft 489kts
10-Mar-19 12:25 44.665796 -94.277107 69 21297ft 448kts
10-Mar-19 12:26 44.702354 -94.114127 69 18572ft 426kts
10-Mar-19 12:27 44.735405 -93.966731 69 17100ft 377kts
10-Mar-19 12:28 44.763312 -93.841668 69 15068ft 364kts
10-Mar-19 12:29 44.792881 -93.708682 69 13015ft 345kts
10-Mar-19 12:30 44.821218 -93.580683 68 10925ft 331kts
10-Mar-19 12:31 44.847891 -93.459951 67 9634ft 307kts
10-Mar-19 12:32 44.822515 -93.357848 121 8889ft 272kts
10-Mar-19 12:33 44.783575 -93.268351 121 7708ft 259kts
10-Mar-19 12:34 44.746160 -93.181356 122 6510ft 251kts
10-Mar-19 12:35 44.712464 -93.100177 122 5710ft 218kts
10-Mar-19 12:36 44.684033 -93.028282 103 4622ft 206kts
10-Mar-19 12:37 44.712330 -92.976198 32 3695ft 165kts
10-Mar-19 12:38 44.751920 -92.952033 339 3721ft 161kts
10-Mar-19 12:39 44.784502 -92.990491 303 2833ft 159kts
10-Mar-19 12:40 44.804513 -93.041926 300 2834ft 137kts
10-Mar-19 12:41 44.823552 -93.086382 303 2724ft 135kts
10-Mar-19 12:42 44.843432 -93.131686 301 1967ft 135kts
10-Mar-19 12:43 44.862968 -93.176901 302 1239ft 133kts
10-Mar-19 12:44 44.881230 -93.218948 300 825ft 77kts
10-Mar-19 12:45 44.878890 -93.226467 223 830ft 23kts
10-Mar-19 12:46 44.875327 -93.228121 134 831ft 5kts

Navigation Log

Ident Type
Flight plan parsing failed, navigation log unavailable